sensor_id;sensor_type;location;lat;lon;timestamp;P1;durP1;ratioP1;P2;durP2;ratioP2
25091;SDS011;13082;52.374;4.946;2022-12-16T00:00:12;4.67;;;1.77;;
25091;SDS011;13082;52.374;4.946;2022-12-16T00:02:39;3.53;;;2.20;;
25091;SDS011;13082;52.374;4.946;2022-12-16T00:05:05;1.87;;;1.23;;
25091;SDS011;13082;52.374;4.946;2022-12-16T00:07:32;0.73;;;0.73;;
25091;SDS011;13082;52.374;4.946;2022-12-16T00:09:58;1.07;;;1.07;;
25091;SDS011;13082;52.374;4.946;2022-12-16T00:12:24;4.33;;;1.47;;
25091;SDS011;13082;52.374;4.946;2022-12-16T00:14:50;3.60;;;1.33;;
25091;SDS011;13082;52.374;4.946;2022-12-16T00:17:15;2.83;;;1.13;;
25091;SDS011;13082;52.374;4.946;2022-12-16T00:19:41;2.10;;;1.10;;
25091;SDS011;13082;52.374;4.946;2022-12-16T00:22:07;1.80;;;1.17;;
25091;SDS011;13082;52.374;4.946;2022-12-16T00:24:32;5.87;;;1.53;;
25091;SDS011;13082;52.374;4.946;2022-12-16T00:26:58;2.00;;;1.80;;
25091;SDS011;13082;52.374;4.946;2022-12-16T00:29:24;2.50;;;1.50;;
25091;SDS011;13082;52.374;4.946;2022-12-16T00:31:53;4.57;;;1.63;;
25091;SDS011;13082;52.374;4.946;2022-12-16T00:34:18;4.73;;;1.50;;
25091;SDS011;13082;52.374;4.946;2022-12-16T00:36:44;2.70;;;1.57;;
25091;SDS011;13082;52.374;4.946;2022-12-16T00:39:10;4.27;;;1.57;;
25091;SDS011;13082;52.374;4.946;2022-12-16T00:41:35;3.23;;;1.47;;
25091;SDS011;13082;52.374;4.946;2022-12-16T00:44:01;1.50;;;1.33;;
25091;SDS011;13082;52.374;4.946;2022-12-16T00:46:27;2.23;;;1.43;;
25091;SDS011;13082;52.374;4.946;2022-12-16T00:48:53;3.53;;;1.47;;
25091;SDS011;13082;52.374;4.946;2022-12-16T00:51:19;4.53;;;1.60;;
25091;SDS011;13082;52.374;4.946;2022-12-16T00:53:45;2.47;;;1.30;;
25091;SDS011;13082;52.374;4.946;2022-12-16T00:56:13;1.47;;;1.30;;
25091;SDS011;13082;52.374;4.946;2022-12-16T00:58:39;3.90;;;1.50;;
25091;SDS011;13082;52.374;4.946;2022-12-16T01:01:05;2.23;;;1.90;;
25091;SDS011;13082;52.374;4.946;2022-12-16T01:03:32;3.00;;;1.20;;
25091;SDS011;13082;52.374;4.946;2022-12-16T01:05:57;3.43;;;1.40;;
25091;SDS011;13082;52.374;4.946;2022-12-16T01:08:23;4.90;;;1.73;;
25091;SDS011;13082;52.374;4.946;2022-12-16T01:10:50;1.50;;;1.40;;
25091;SDS011;13082;52.374;4.946;2022-12-16T01:13:21;2.27;;;1.27;;
25091;SDS011;13082;52.374;4.946;2022-12-16T01:15:48;2.03;;;1.50;;
25091;SDS011;13082;52.374;4.946;2022-12-16T01:18:17;2.47;;;1.33;;
25091;SDS011;13082;52.374;4.946;2022-12-16T01:20:43;1.33;;;1.20;;
25091;SDS011;13082;52.374;4.946;2022-12-16T01:23:09;2.83;;;1.73;;
25091;SDS011;13082;52.374;4.946;2022-12-16T01:25:34;3.93;;;1.70;;
25091;SDS011;13082;52.374;4.946;2022-12-16T01:28:00;5.17;;;1.80;;
25091;SDS011;13082;52.374;4.946;2022-12-16T01:30:26;3.60;;;1.77;;
25091;SDS011;13082;52.374;4.946;2022-12-16T01:32:51;2.60;;;1.43;;
25091;SDS011;13082;52.374;4.946;2022-12-16T01:35:17;1.90;;;1.70;;
25091;SDS011;13082;52.374;4.946;2022-12-16T01:37:43;3.33;;;1.70;;
25091;SDS011;13082;52.374;4.946;2022-12-16T01:40:18;3.03;;;1.80;;
25091;SDS011;13082;52.374;4.946;2022-12-16T01:42:46;2.70;;;1.57;;
25091;SDS011;13082;52.374;4.946;2022-12-16T01:50:50;1.37;;;1.13;;
25091;SDS011;13082;52.374;4.946;2022-12-16T01:53:21;4.33;;;1.50;;
25091;SDS011;13082;52.374;4.946;2022-12-16T01:55:47;1.30;;;1.00;;
25091;SDS011;13082;52.374;4.946;2022-12-16T01:58:18;4.73;;;1.20;;
25091;SDS011;13082;52.374;4.946;2022-12-16T02:00:48;2.23;;;1.50;;
25091;SDS011;13082;52.374;4.946;2022-12-16T02:03:14;2.33;;;1.33;;
25091;SDS011;13082;52.374;4.946;2022-12-16T02:05:40;2.77;;;1.90;;
25091;SDS011;13082;52.374;4.946;2022-12-16T02:08:14;6.10;;;1.70;;
25091;SDS011;13082;52.374;4.946;2022-12-16T02:10:45;2.80;;;1.40;;
25091;SDS011;13082;52.374;4.946;2022-12-16T02:13:45;3.63;;;1.80;;
25091;SDS011;13082;52.374;4.946;2022-12-16T02:19:01;4.57;;;1.30;;
25091;SDS011;13082;52.374;4.946;2022-12-16T02:31:07;3.30;;;1.37;;
25091;SDS011;13082;52.374;4.946;2022-12-16T02:33:23;3.33;;;1.43;;
25091;SDS011;13082;52.374;4.946;2022-12-16T02:36:07;4.00;;;1.40;;
25091;SDS011;13082;52.374;4.946;2022-12-16T02:39:03;7.13;;;1.90;;
25091;SDS011;13082;52.374;4.946;2022-12-16T02:44:18;6.73;;;1.87;;
25091;SDS011;13082;52.374;4.946;2022-12-16T02:46:52;8.17;;;1.80;;
25091;SDS011;13082;52.374;4.946;2022-12-16T02:51:45;6.30;;;1.27;;
25091;SDS011;13082;52.374;4.946;2022-12-16T02:54:11;4.43;;;1.23;;
25091;SDS011;13082;52.374;4.946;2022-12-16T02:57:21;4.83;;;1.73;;
25091;SDS011;13082;52.374;4.946;2022-12-16T03:05:05;1.77;;;1.10;;
25091;SDS011;13082;52.374;4.946;2022-12-16T03:07:56;1.63;;;1.10;;
25091;SDS011;13082;52.374;4.946;2022-12-16T03:10:27;1.67;;;1.30;;
25091;SDS011;13082;52.374;4.946;2022-12-16T03:12:56;3.13;;;1.43;;
25091;SDS011;13082;52.374;4.946;2022-12-16T03:15:25;3.93;;;1.20;;
25091;SDS011;13082;52.374;4.946;2022-12-16T03:17:54;7.43;;;1.40;;
25091;SDS011;13082;52.374;4.946;2022-12-16T03:20:22;3.57;;;1.27;;
25091;SDS011;13082;52.374;4.946;2022-12-16T03:22:54;2.77;;;1.37;;
25091;SDS011;13082;52.374;4.946;2022-12-16T03:25:25;1.57;;;1.20;;
25091;SDS011;13082;52.374;4.946;2022-12-16T03:27:54;2.10;;;1.20;;
25091;SDS011;13082;52.374;4.946;2022-12-16T03:30:36;3.73;;;1.33;;
25091;SDS011;13082;52.374;4.946;2022-12-16T03:33:07;3.67;;;1.40;;
25091;SDS011;13082;52.374;4.946;2022-12-16T03:36:04;2.57;;;1.30;;
25091;SDS011;13082;52.374;4.946;2022-12-16T03:38:34;1.13;;;1.00;;
25091;SDS011;13082;52.374;4.946;2022-12-16T03:41:02;3.27;;;1.37;;
25091;SDS011;13082;52.374;4.946;2022-12-16T03:43:29;2.93;;;1.40;;
25091;SDS011;13082;52.374;4.946;2022-12-16T03:45:56;3.83;;;1.63;;
25091;SDS011;13082;52.374;4.946;2022-12-16T03:48:26;1.73;;;1.10;;
25091;SDS011;13082;52.374;4.946;2022-12-16T03:50:52;2.90;;;1.63;;
25091;SDS011;13082;52.374;4.946;2022-12-16T03:53:18;1.60;;;1.50;;
25091;SDS011;13082;52.374;4.946;2022-12-16T03:55:43;2.10;;;1.23;;
25091;SDS011;13082;52.374;4.946;2022-12-16T03:58:09;2.27;;;1.30;;
25091;SDS011;13082;52.374;4.946;2022-12-16T04:00:37;4.00;;;1.20;;
25091;SDS011;13082;52.374;4.946;2022-12-16T04:03:03;4.10;;;1.53;;
25091;SDS011;13082;52.374;4.946;2022-12-16T04:05:28;2.97;;;1.53;;
25091;SDS011;13082;52.374;4.946;2022-12-16T04:07:57;1.53;;;1.43;;
25091;SDS011;13082;52.374;4.946;2022-12-16T04:10:22;1.97;;;1.80;;
25091;SDS011;13082;52.374;4.946;2022-12-16T04:13:07;1.70;;;1.43;;
25091;SDS011;13082;52.374;4.946;2022-12-16T04:15:54;2.40;;;1.50;;
25091;SDS011;13082;52.374;4.946;2022-12-16T04:18:38;1.63;;;1.33;;
25091;SDS011;13082;52.374;4.946;2022-12-16T04:21:24;1.23;;;1.07;;
25091;SDS011;13082;52.374;4.946;2022-12-16T04:24:11;3.60;;;1.40;;
25091;SDS011;13082;52.374;4.946;2022-12-16T04:26:47;4.00;;;1.63;;
25091;SDS011;13082;52.374;4.946;2022-12-16T04:29:32;3.10;;;1.30;;
25091;SDS011;13082;52.374;4.946;2022-12-16T04:31:58;6.33;;;1.80;;
25091;SDS011;13082;52.374;4.946;2022-12-16T04:34:24;5.47;;;1.77;;
25091;SDS011;13082;52.374;4.946;2022-12-16T04:37:00;1.67;;;1.57;;
25091;SDS011;13082;52.374;4.946;2022-12-16T04:39:45;1.97;;;1.43;;
25091;SDS011;13082;52.374;4.946;2022-12-16T04:42:30;10.80;;;2.10;;
25091;SDS011;13082;52.374;4.946;2022-12-16T04:45:15;3.00;;;2.00;;
25091;SDS011;13082;52.374;4.946;2022-12-16T04:48:00;4.80;;;1.67;;
25091;SDS011;13082;52.374;4.946;2022-12-16T04:50:45;3.23;;;1.60;;
25091;SDS011;13082;52.374;4.946;2022-12-16T04:53:29;3.50;;;1.60;;
25091;SDS011;13082;52.374;4.946;2022-12-16T04:56:14;3.37;;;1.60;;
25091;SDS011;13082;52.374;4.946;2022-12-16T04:58:58;1.97;;;1.43;;
25091;SDS011;13082;52.374;4.946;2022-12-16T05:01:42;3.87;;;1.73;;
25091;SDS011;13082;52.374;4.946;2022-12-16T05:04:36;4.70;;;1.37;;
25091;SDS011;13082;52.374;4.946;2022-12-16T05:07:20;2.03;;;1.40;;
25091;SDS011;13082;52.374;4.946;2022-12-16T05:10:05;4.33;;;1.90;;
25091;SDS011;13082;52.374;4.946;2022-12-16T05:12:53;3.73;;;1.60;;
25091;SDS011;13082;52.374;4.946;2022-12-16T05:15:39;3.60;;;1.93;;
25091;SDS011;13082;52.374;4.946;2022-12-16T05:18:23;2.77;;;1.67;;
25091;SDS011;13082;52.374;4.946;2022-12-16T05:21:07;3.13;;;1.87;;
25091;SDS011;13082;52.374;4.946;2022-12-16T05:23:51;6.40;;;1.60;;
25091;SDS011;13082;52.374;4.946;2022-12-16T05:26:35;13.27;;;7.37;;
25091;SDS011;13082;52.374;4.946;2022-12-16T05:29:20;6.67;;;4.40;;
25091;SDS011;13082;52.374;4.946;2022-12-16T05:32:04;8.97;;;3.00;;
25091;SDS011;13082;52.374;4.946;2022-12-16T05:34:48;4.10;;;2.77;;
25091;SDS011;13082;52.374;4.946;2022-12-16T05:37:32;2.50;;;2.13;;
25091;SDS011;13082;52.374;4.946;2022-12-16T05:40:16;2.53;;;1.77;;
25091;SDS011;13082;52.374;4.946;2022-12-16T05:43:00;3.73;;;2.00;;
25091;SDS011;13082;52.374;4.946;2022-12-16T05:45:44;3.40;;;2.00;;
25091;SDS011;13082;52.374;4.946;2022-12-16T05:48:28;9.80;;;1.83;;
25091;SDS011;13082;52.374;4.946;2022-12-16T05:51:12;3.80;;;2.77;;
25091;SDS011;13082;52.374;4.946;2022-12-16T05:53:56;3.43;;;2.53;;
25091;SDS011;13082;52.374;4.946;2022-12-16T05:56:41;2.17;;;1.90;;
25091;SDS011;13082;52.374;4.946;2022-12-16T05:59:25;6.33;;;2.97;;
25091;SDS011;13082;52.374;4.946;2022-12-16T06:02:09;10.43;;;3.10;;
25091;SDS011;13082;52.374;4.946;2022-12-16T06:04:53;3.43;;;2.77;;
25091;SDS011;13082;52.374;4.946;2022-12-16T06:07:37;4.87;;;2.63;;
25091;SDS011;13082;52.374;4.946;2022-12-16T06:10:21;5.67;;;2.37;;
25091;SDS011;13082;52.374;4.946;2022-12-16T06:13:05;4.57;;;2.40;;
25091;SDS011;13082;52.374;4.946;2022-12-16T06:15:49;3.40;;;2.27;;
25091;SDS011;13082;52.374;4.946;2022-12-16T06:18:33;5.00;;;2.90;;
25091;SDS011;13082;52.374;4.946;2022-12-16T06:21:17;2.43;;;1.87;;
25091;SDS011;13082;52.374;4.946;2022-12-16T06:24:01;4.80;;;2.07;;
25091;SDS011;13082;52.374;4.946;2022-12-16T06:26:46;2.67;;;2.00;;
25091;SDS011;13082;52.374;4.946;2022-12-16T06:29:30;1.80;;;1.63;;
25091;SDS011;13082;52.374;4.946;2022-12-16T06:32:14;2.73;;;1.80;;
25091;SDS011;13082;52.374;4.946;2022-12-16T06:34:58;4.93;;;1.50;;
25091;SDS011;13082;52.374;4.946;2022-12-16T06:37:42;1.50;;;1.40;;
25091;SDS011;13082;52.374;4.946;2022-12-16T06:40:30;3.90;;;1.73;;
25091;SDS011;13082;52.374;4.946;2022-12-16T06:43:14;2.17;;;1.53;;
25091;SDS011;13082;52.374;4.946;2022-12-16T06:45:58;2.57;;;1.90;;
25091;SDS011;13082;52.374;4.946;2022-12-16T06:48:42;5.23;;;1.93;;
25091;SDS011;13082;52.374;4.946;2022-12-16T06:51:26;2.33;;;1.43;;
25091;SDS011;13082;52.374;4.946;2022-12-16T06:54:10;2.10;;;1.63;;
25091;SDS011;13082;52.374;4.946;2022-12-16T06:56:54;3.53;;;1.60;;
25091;SDS011;13082;52.374;4.946;2022-12-16T06:59:38;6.60;;;1.77;;
25091;SDS011;13082;52.374;4.946;2022-12-16T07:02:22;4.53;;;1.40;;
25091;SDS011;13082;52.374;4.946;2022-12-16T07:05:07;1.60;;;1.40;;
25091;SDS011;13082;52.374;4.946;2022-12-16T07:07:51;1.13;;;1.03;;
25091;SDS011;13082;52.374;4.946;2022-12-16T07:10:36;1.60;;;1.30;;
25091;SDS011;13082;52.374;4.946;2022-12-16T07:13:20;3.20;;;1.70;;
25091;SDS011;13082;52.374;4.946;2022-12-16T07:16:04;2.10;;;1.43;;
25091;SDS011;13082;52.374;4.946;2022-12-16T07:18:48;1.50;;;1.30;;
25091;SDS011;13082;52.374;4.946;2022-12-16T07:21:33;2.30;;;1.60;;
25091;SDS011;13082;52.374;4.946;2022-12-16T07:24:17;5.20;;;2.10;;
25091;SDS011;13082;52.374;4.946;2022-12-16T07:27:01;5.83;;;1.93;;
25091;SDS011;13082;52.374;4.946;2022-12-16T07:29:46;1.93;;;1.63;;
25091;SDS011;13082;52.374;4.946;2022-12-16T07:32:30;1.77;;;1.67;;
25091;SDS011;13082;52.374;4.946;2022-12-16T07:35:14;2.07;;;1.53;;
25091;SDS011;13082;52.374;4.946;2022-12-16T07:37:58;3.13;;;2.20;;
25091;SDS011;13082;52.374;4.946;2022-12-16T07:40:42;6.00;;;3.27;;
25091;SDS011;13082;52.374;4.946;2022-12-16T07:43:26;6.27;;;3.13;;
25091;SDS011;13082;52.374;4.946;2022-12-16T07:46:10;5.80;;;2.60;;
25091;SDS011;13082;52.374;4.946;2022-12-16T07:48:54;2.47;;;1.90;;
25091;SDS011;13082;52.374;4.946;2022-12-16T07:51:38;2.10;;;1.90;;
25091;SDS011;13082;52.374;4.946;2022-12-16T07:54:22;3.80;;;1.97;;
25091;SDS011;13082;52.374;4.946;2022-12-16T07:57:06;5.77;;;2.30;;
25091;SDS011;13082;52.374;4.946;2022-12-16T07:59:50;5.33;;;2.00;;
25091;SDS011;13082;52.374;4.946;2022-12-16T08:02:34;6.77;;;2.53;;
25091;SDS011;13082;52.374;4.946;2022-12-16T08:05:19;7.27;;;2.27;;
25091;SDS011;13082;52.374;4.946;2022-12-16T08:08:03;4.90;;;2.50;;
25091;SDS011;13082;52.374;4.946;2022-12-16T08:10:47;4.77;;;2.97;;
25091;SDS011;13082;52.374;4.946;2022-12-16T08:13:31;9.60;;;2.30;;
25091;SDS011;13082;52.374;4.946;2022-12-16T08:16:15;3.70;;;2.30;;
25091;SDS011;13082;52.374;4.946;2022-12-16T08:18:59;2.83;;;2.20;;
25091;SDS011;13082;52.374;4.946;2022-12-16T08:21:43;4.83;;;2.20;;
25091;SDS011;13082;52.374;4.946;2022-12-16T08:24:27;6.87;;;2.77;;
25091;SDS011;13082;52.374;4.946;2022-12-16T08:27:11;4.07;;;3.00;;
25091;SDS011;13082;52.374;4.946;2022-12-16T08:29:55;6.43;;;1.90;;
25091;SDS011;13082;52.374;4.946;2022-12-16T08:32:39;4.97;;;2.50;;
25091;SDS011;13082;52.374;4.946;2022-12-16T08:35:23;6.00;;;2.83;;
25091;SDS011;13082;52.374;4.946;2022-12-16T08:38:07;5.93;;;2.30;;
25091;SDS011;13082;52.374;4.946;2022-12-16T08:40:53;4.50;;;2.43;;
25091;SDS011;13082;52.374;4.946;2022-12-16T08:43:55;4.33;;;2.20;;
25091;SDS011;13082;52.374;4.946;2022-12-16T08:46:39;4.17;;;2.00;;
25091;SDS011;13082;52.374;4.946;2022-12-16T08:49:23;7.20;;;2.17;;
25091;SDS011;13082;52.374;4.946;2022-12-16T08:52:07;3.37;;;1.70;;
25091;SDS011;13082;52.374;4.946;2022-12-16T08:54:51;3.00;;;1.90;;
25091;SDS011;13082;52.374;4.946;2022-12-16T08:57:35;5.73;;;2.63;;
25091;SDS011;13082;52.374;4.946;2022-12-16T09:00:19;4.20;;;2.20;;
25091;SDS011;13082;52.374;4.946;2022-12-16T09:03:03;3.93;;;1.87;;
25091;SDS011;13082;52.374;4.946;2022-12-16T09:06:01;6.80;;;1.90;;
25091;SDS011;13082;52.374;4.946;2022-12-16T09:08:45;6.37;;;2.23;;
25091;SDS011;13082;52.374;4.946;2022-12-16T09:11:30;2.43;;;1.87;;
25091;SDS011;13082;52.374;4.946;2022-12-16T09:14:14;2.03;;;1.53;;
25091;SDS011;13082;52.374;4.946;2022-12-16T09:16:58;3.73;;;2.40;;
25091;SDS011;13082;52.374;4.946;2022-12-16T09:19:42;2.73;;;2.10;;
25091;SDS011;13082;52.374;4.946;2022-12-16T09:22:26;2.70;;;1.60;;
25091;SDS011;13082;52.374;4.946;2022-12-16T09:25:10;8.50;;;2.03;;
25091;SDS011;13082;52.374;4.946;2022-12-16T09:27:54;9.53;;;2.13;;
25091;SDS011;13082;52.374;4.946;2022-12-16T09:30:38;3.10;;;2.33;;
25091;SDS011;13082;52.374;4.946;2022-12-16T09:33:33;3.03;;;1.90;;
25091;SDS011;13082;52.374;4.946;2022-12-16T09:36:17;4.97;;;2.37;;
25091;SDS011;13082;52.374;4.946;2022-12-16T09:39:01;4.47;;;1.70;;
25091;SDS011;13082;52.374;4.946;2022-12-16T09:48:14;4.50;;;1.93;;
25091;SDS011;13082;52.374;4.946;2022-12-16T09:51:11;4.07;;;2.17;;
25091;SDS011;13082;52.374;4.946;2022-12-16T09:53:56;2.53;;;2.30;;
25091;SDS011;13082;52.374;4.946;2022-12-16T09:56:42;3.63;;;2.20;;
25091;SDS011;13082;52.374;4.946;2022-12-16T09:59:29;4.23;;;2.07;;
25091;SDS011;13082;52.374;4.946;2022-12-16T10:02:34;2.90;;;1.73;;
25091;SDS011;13082;52.374;4.946;2022-12-16T10:05:19;1.63;;;1.53;;
25091;SDS011;13082;52.374;4.946;2022-12-16T10:14:48;5.75;;;2.40;;
25091;SDS011;13082;52.374;4.946;2022-12-16T10:17:40;3.33;;;2.33;;
25091;SDS011;13082;52.374;4.946;2022-12-16T10:20:44;2.50;;;2.13;;
25091;SDS011;13082;52.374;4.946;2022-12-16T10:23:37;1.80;;;1.70;;
25091;SDS011;13082;52.374;4.946;2022-12-16T10:26:37;2.73;;;2.07;;
25091;SDS011;13082;52.374;4.946;2022-12-16T10:29:38;2.80;;;2.00;;
25091;SDS011;13082;52.374;4.946;2022-12-16T10:32:37;3.67;;;2.27;;
25091;SDS011;13082;52.374;4.946;2022-12-16T10:35:29;4.23;;;2.10;;
25091;SDS011;13082;52.374;4.946;2022-12-16T10:38:23;3.10;;;2.07;;
25091;SDS011;13082;52.374;4.946;2022-12-16T10:41:13;3.07;;;2.60;;
25091;SDS011;13082;52.374;4.946;2022-12-16T10:43:58;7.30;;;2.00;;
25091;SDS011;13082;52.374;4.946;2022-12-16T10:46:43;2.50;;;2.27;;
25091;SDS011;13082;52.374;4.946;2022-12-16T10:49:27;4.33;;;2.10;;
25091;SDS011;13082;52.374;4.946;2022-12-16T10:52:12;4.83;;;2.40;;
25091;SDS011;13082;52.374;4.946;2022-12-16T10:54:58;4.73;;;2.20;;
25091;SDS011;13082;52.374;4.946;2022-12-16T10:58:19;2.70;;;2.20;;
25091;SDS011;13082;52.374;4.946;2022-12-16T11:01:20;5.57;;;2.97;;
25091;SDS011;13082;52.374;4.946;2022-12-16T11:04:29;3.20;;;2.23;;
25091;SDS011;13082;52.374;4.946;2022-12-16T11:22:18;4.97;;;2.40;;
25091;SDS011;13082;52.374;4.946;2022-12-16T11:25:14;2.97;;;2.20;;
25091;SDS011;13082;52.374;4.946;2022-12-16T11:28:04;4.07;;;2.50;;
25091;SDS011;13082;52.374;4.946;2022-12-16T11:30:59;3.23;;;2.77;;
25091;SDS011;13082;52.374;4.946;2022-12-16T11:33:57;3.30;;;2.30;;
25091;SDS011;13082;52.374;4.946;2022-12-16T11:36:43;7.63;;;2.57;;
25091;SDS011;13082;52.374;4.946;2022-12-16T11:39:29;2.77;;;2.20;;
25091;SDS011;13082;52.374;4.946;2022-12-16T11:42:18;5.37;;;2.20;;
25091;SDS011;13082;52.374;4.946;2022-12-16T11:45:18;4.53;;;2.40;;
25091;SDS011;13082;52.374;4.946;2022-12-16T11:48:27;2.60;;;2.40;;
25091;SDS011;13082;52.374;4.946;2022-12-16T11:51:35;6.27;;;2.57;;
25091;SDS011;13082;52.374;4.946;2022-12-16T11:54:26;8.17;;;3.27;;
25091;SDS011;13082;52.374;4.946;2022-12-16T11:57:24;6.83;;;3.00;;
25091;SDS011;13082;52.374;4.946;2022-12-16T12:00:14;4.40;;;2.67;;
25091;SDS011;13082;52.374;4.946;2022-12-16T12:03:19;3.90;;;3.07;;
25091;SDS011;13082;52.374;4.946;2022-12-16T12:08:57;3.40;;;2.70;;
25091;SDS011;13082;52.374;4.946;2022-12-16T12:17:34;5.03;;;3.50;;
25091;SDS011;13082;52.374;4.946;2022-12-16T12:26:23;6.30;;;3.30;;
25091;SDS011;13082;52.374;4.946;2022-12-16T12:29:27;3.97;;;2.83;;
25091;SDS011;13082;52.374;4.946;2022-12-16T12:32:28;4.50;;;3.38;;
25091;SDS011;13082;52.374;4.946;2022-12-16T12:35:28;6.00;;;3.77;;
25091;SDS011;13082;52.374;4.946;2022-12-16T12:41:47;2.77;;;2.50;;
25091;SDS011;13082;52.374;4.946;2022-12-16T12:47:47;3.23;;;2.13;;
25091;SDS011;13082;52.374;4.946;2022-12-16T12:51:05;3.77;;;2.60;;
25091;SDS011;13082;52.374;4.946;2022-12-16T12:54:18;2.83;;;2.37;;
25091;SDS011;13082;52.374;4.946;2022-12-16T12:57:07;3.60;;;2.20;;
25091;SDS011;13082;52.374;4.946;2022-12-16T13:00:04;2.20;;;1.93;;
25091;SDS011;13082;52.374;4.946;2022-12-16T13:03:16;4.53;;;2.43;;
25091;SDS011;13082;52.374;4.946;2022-12-16T13:06:13;5.10;;;2.50;;
25091;SDS011;13082;52.374;4.946;2022-12-16T13:08:59;4.53;;;2.60;;
25091;SDS011;13082;52.374;4.946;2022-12-16T13:20:44;3.73;;;1.97;;
25091;SDS011;13082;52.374;4.946;2022-12-16T13:23:31;3.27;;;2.07;;
25091;SDS011;13082;52.374;4.946;2022-12-16T13:26:18;5.73;;;2.43;;
25091;SDS011;13082;52.374;4.946;2022-12-16T13:29:13;4.97;;;2.30;;
25091;SDS011;13082;52.374;4.946;2022-12-16T13:32:13;4.17;;;2.27;;
25091;SDS011;13082;52.374;4.946;2022-12-16T13:37:57;4.00;;;2.17;;
25091;SDS011;13082;52.374;4.946;2022-12-16T13:40:58;3.10;;;2.20;;
25091;SDS011;13082;52.374;4.946;2022-12-16T13:43:46;2.73;;;2.17;;
25091;SDS011;13082;52.374;4.946;2022-12-16T13:46:47;2.87;;;2.40;;
25091;SDS011;13082;52.374;4.946;2022-12-16T13:53:06;4.60;;;2.13;;
25091;SDS011;13082;52.374;4.946;2022-12-16T13:55:38;3.97;;;2.40;;
25091;SDS011;13082;52.374;4.946;2022-12-16T14:01:37;2.47;;;2.27;;
25091;SDS011;13082;52.374;4.946;2022-12-16T14:04:25;3.23;;;2.33;;
25091;SDS011;13082;52.374;4.946;2022-12-16T14:07:12;2.77;;;1.80;;
25091;SDS011;13082;52.374;4.946;2022-12-16T14:09:59;2.77;;;1.93;;
25091;SDS011;13082;52.374;4.946;2022-12-16T14:15:55;2.47;;;1.93;;
25091;SDS011;13082;52.374;4.946;2022-12-16T14:25:19;2.57;;;2.03;;
25091;SDS011;13082;52.374;4.946;2022-12-16T14:28:47;3.83;;;2.40;;
25091;SDS011;13082;52.374;4.946;2022-12-16T14:34:00;6.60;;;3.30;;
25091;SDS011;13082;52.374;4.946;2022-12-16T14:36:45;3.03;;;2.33;;
25091;SDS011;13082;52.374;4.946;2022-12-16T14:39:34;6.73;;;2.23;;
25091;SDS011;13082;52.374;4.946;2022-12-16T14:42:27;3.70;;;2.70;;
25091;SDS011;13082;52.374;4.946;2022-12-16T14:45:21;2.20;;;2.03;;
25091;SDS011;13082;52.374;4.946;2022-12-16T14:54:41;2.83;;;2.10;;
25091;SDS011;13082;52.374;4.946;2022-12-16T14:57:27;4.60;;;2.03;;
25091;SDS011;13082;52.374;4.946;2022-12-16T15:03:05;2.33;;;1.83;;
25091;SDS011;13082;52.374;4.946;2022-12-16T15:09:33;2.67;;;1.97;;
25091;SDS011;13082;52.374;4.946;2022-12-16T15:12:21;3.60;;;2.07;;
25091;SDS011;13082;52.374;4.946;2022-12-16T15:15:09;3.13;;;2.50;;
25091;SDS011;13082;52.374;4.946;2022-12-16T15:17:58;2.90;;;2.17;;
25091;SDS011;13082;52.374;4.946;2022-12-16T15:20:53;2.93;;;2.07;;
25091;SDS011;13082;52.374;4.946;2022-12-16T15:23:41;3.73;;;2.17;;
25091;SDS011;13082;52.374;4.946;2022-12-16T15:26:31;2.80;;;2.60;;
25091;SDS011;13082;52.374;4.946;2022-12-16T15:29:50;3.43;;;2.73;;
25091;SDS011;13082;52.374;4.946;2022-12-16T15:32:32;4.57;;;2.67;;
25091;SDS011;13082;52.374;4.946;2022-12-16T15:38:29;4.00;;;3.10;;
25091;SDS011;13082;52.374;4.946;2022-12-16T15:41:29;2.80;;;2.60;;
25091;SDS011;13082;52.374;4.946;2022-12-16T15:44:24;5.10;;;3.00;;
25091;SDS011;13082;52.374;4.946;2022-12-16T15:50:18;7.13;;;2.77;;
25091;SDS011;13082;52.374;4.946;2022-12-16T15:56:22;7.57;;;2.97;;
25091;SDS011;13082;52.374;4.946;2022-12-16T15:59:21;3.13;;;2.83;;
25091;SDS011;13082;52.374;4.946;2022-12-16T16:02:12;4.20;;;3.30;;
25091;SDS011;13082;52.374;4.946;2022-12-16T16:05:15;3.70;;;2.47;;
25091;SDS011;13082;52.374;4.946;2022-12-16T16:08:02;3.03;;;2.57;;
25091;SDS011;13082;52.374;4.946;2022-12-16T16:10:47;5.10;;;2.37;;
25091;SDS011;13082;52.374;4.946;2022-12-16T16:13:31;4.33;;;2.43;;
25091;SDS011;13082;52.374;4.946;2022-12-16T16:16:15;2.83;;;2.33;;
25091;SDS011;13082;52.374;4.946;2022-12-16T16:19:00;3.57;;;3.03;;
25091;SDS011;13082;52.374;4.946;2022-12-16T16:21:44;2.70;;;2.30;;
25091;SDS011;13082;52.374;4.946;2022-12-16T16:24:28;7.43;;;3.87;;
25091;SDS011;13082;52.374;4.946;2022-12-16T16:27:13;5.77;;;2.80;;
25091;SDS011;13082;52.374;4.946;2022-12-16T16:29:59;4.50;;;3.00;;
25091;SDS011;13082;52.374;4.946;2022-12-16T16:32:43;3.63;;;2.63;;
25091;SDS011;13082;52.374;4.946;2022-12-16T16:35:28;4.33;;;3.03;;
25091;SDS011;13082;52.374;4.946;2022-12-16T16:38:16;5.50;;;3.20;;
25091;SDS011;13082;52.374;4.946;2022-12-16T16:41:00;3.80;;;3.17;;
25091;SDS011;13082;52.374;4.946;2022-12-16T16:43:45;5.07;;;2.73;;
25091;SDS011;13082;52.374;4.946;2022-12-16T16:46:30;5.77;;;2.90;;
25091;SDS011;13082;52.374;4.946;2022-12-16T16:49:24;3.67;;;2.83;;
25091;SDS011;13082;52.374;4.946;2022-12-16T16:52:14;6.20;;;3.13;;
25091;SDS011;13082;52.374;4.946;2022-12-16T16:55:00;4.93;;;3.00;;
25091;SDS011;13082;52.374;4.946;2022-12-16T16:57:45;3.37;;;2.83;;
25091;SDS011;13082;52.374;4.946;2022-12-16T17:00:29;5.57;;;3.10;;
25091;SDS011;13082;52.374;4.946;2022-12-16T17:03:13;4.23;;;2.97;;
25091;SDS011;13082;52.374;4.946;2022-12-16T17:05:58;4.87;;;3.80;;
25091;SDS011;13082;52.374;4.946;2022-12-16T17:08:42;7.53;;;3.67;;
25091;SDS011;13082;52.374;4.946;2022-12-16T17:11:26;3.40;;;2.93;;
25091;SDS011;13082;52.374;4.946;2022-12-16T17:14:11;6.20;;;4.13;;
25091;SDS011;13082;52.374;4.946;2022-12-16T17:16:57;4.53;;;3.27;;
25091;SDS011;13082;52.374;4.946;2022-12-16T17:19:42;4.70;;;3.77;;
25091;SDS011;13082;52.374;4.946;2022-12-16T17:22:26;6.53;;;4.07;;
25091;SDS011;13082;52.374;4.946;2022-12-16T17:25:31;5.53;;;3.50;;
25091;SDS011;13082;52.374;4.946;2022-12-16T17:28:15;8.83;;;4.33;;
25091;SDS011;13082;52.374;4.946;2022-12-16T17:30:59;5.60;;;4.30;;
25091;SDS011;13082;52.374;4.946;2022-12-16T17:33:44;4.53;;;3.63;;
25091;SDS011;13082;52.374;4.946;2022-12-16T17:36:28;6.10;;;4.10;;
25091;SDS011;13082;52.374;4.946;2022-12-16T17:39:12;7.00;;;4.30;;
25091;SDS011;13082;52.374;4.946;2022-12-16T17:41:57;4.13;;;3.73;;
25091;SDS011;13082;52.374;4.946;2022-12-16T17:44:41;5.97;;;3.87;;
25091;SDS011;13082;52.374;4.946;2022-12-16T17:47:25;7.17;;;4.47;;
25091;SDS011;13082;52.374;4.946;2022-12-16T17:50:09;8.10;;;4.00;;
25091;SDS011;13082;52.374;4.946;2022-12-16T17:52:57;6.77;;;4.60;;
25091;SDS011;13082;52.374;4.946;2022-12-16T17:55:41;8.17;;;5.30;;
25091;SDS011;13082;52.374;4.946;2022-12-16T17:58:45;10.87;;;6.23;;
25091;SDS011;13082;52.374;4.946;2022-12-16T18:01:29;9.83;;;4.83;;
25091;SDS011;13082;52.374;4.946;2022-12-16T18:04:13;11.10;;;5.70;;
25091;SDS011;13082;52.374;4.946;2022-12-16T18:06:57;8.40;;;5.07;;
25091;SDS011;13082;52.374;4.946;2022-12-16T18:09:41;10.37;;;5.10;;
25091;SDS011;13082;52.374;4.946;2022-12-16T18:12:25;6.60;;;4.80;;
25091;SDS011;13082;52.374;4.946;2022-12-16T18:15:10;8.03;;;4.63;;
25091;SDS011;13082;52.374;4.946;2022-12-16T18:17:54;7.93;;;4.50;;
25091;SDS011;13082;52.374;4.946;2022-12-16T18:20:38;6.60;;;4.47;;
25091;SDS011;13082;52.374;4.946;2022-12-16T18:23:22;5.23;;;4.20;;
25091;SDS011;13082;52.374;4.946;2022-12-16T18:26:07;8.10;;;4.70;;
25091;SDS011;13082;52.374;4.946;2022-12-16T18:28:52;8.33;;;5.50;;
25091;SDS011;13082;52.374;4.946;2022-12-16T18:31:41;8.30;;;4.67;;
25091;SDS011;13082;52.374;4.946;2022-12-16T18:34:25;8.03;;;4.73;;